createdAt,value
2024-05-09T00:02:15.248Z,1026.12
2024-05-09T00:30:58.627Z,1026.15
2024-05-09T00:59:45.443Z,1026.14
2024-05-09T01:28:30.611Z,1026.06
2024-05-09T01:57:16.367Z,1026.18
2024-05-09T02:25:59.723Z,1026.06
2024-05-09T02:54:42.107Z,1025.99
2024-05-09T03:23:30.962Z,1025.92
2024-05-09T03:52:09.288Z,1025.91
2024-05-09T04:20:53.567Z,1026.1
2024-05-09T04:49:35.194Z,1026.11
2024-05-09T05:18:14.673Z,1026.25
2024-05-09T05:46:57.575Z,1026.32
2024-05-09T06:15:44.597Z,1026.49
2024-05-09T06:44:19.564Z,1026.43
2024-05-09T07:12:55.860Z,1026.47
2024-05-09T07:41:37.269Z,1026.31
2024-05-09T08:39:18.417Z,1025.9
2024-05-09T09:36:35.340Z,1025.72
2024-05-09T10:05:19.481Z,1025.49
2024-05-09T10:33:56.276Z,1025.39
2024-05-09T11:02:26.026Z,1025.17
2024-05-09T11:31:01.908Z,1025.02
2024-05-09T11:59:40.308Z,1024.59
2024-05-09T12:28:22.799Z,1024.4
2024-05-09T12:57:01.441Z,1024.15
2024-05-09T13:25:32.057Z,1023.87
2024-05-09T13:54:23.407Z,1023.59
2024-05-09T14:22:49.536Z,1023.24
2024-05-09T14:51:31.819Z,1023.06
2024-05-09T15:20:30.676Z,1022.73
2024-05-09T15:48:36.442Z,1022.54
2024-05-09T16:17:14.892Z,1022.5
2024-05-09T16:45:47.700Z,1022.29
2024-05-09T17:14:24.952Z,1022.38
2024-05-09T17:43:12.275Z,1022.5
2024-05-09T18:11:42.714Z,1022.59
2024-05-09T18:41:00.750Z,1022.69
2024-05-09T20:06:38.552Z,1023.15
2024-05-09T20:35:15.347Z,1023.22
2024-05-09T21:03:56.291Z,1023.35
2024-05-09T21:32:31.607Z,1023.32
2024-05-09T22:01:05.814Z,1023.1
2024-05-09T22:29:45.392Z,1023.17
2024-05-09T22:58:26.957Z,1023.05
2024-05-09T23:27:05.127Z,1022.99
2024-05-09T23:55:44.087Z,1022.87
